createdAt,value
2019-04-01T00:01:32.450Z,4.20
2019-04-01T00:04:02.168Z,4.20
2019-04-01T00:06:32.126Z,4.20
2019-04-01T00:09:01.878Z,4.20
2019-04-01T00:11:33.428Z,4.10
2019-04-01T00:14:03.164Z,4.10
2019-04-01T00:16:32.903Z,4.10
2019-04-01T00:19:03.685Z,4.10
2019-04-01T00:21:33.674Z,4.10
2019-04-01T00:24:03.485Z,4.00
2019-04-01T00:26:33.206Z,4.00
2019-04-01T00:29:02.946Z,4.00
2019-04-01T00:31:32.671Z,4.00
2019-04-01T00:34:02.459Z,4.00
2019-04-01T00:36:32.152Z,3.90
2019-04-01T00:39:06.658Z,3.90
2019-04-01T00:41:44.096Z,3.90
2019-04-01T00:44:13.826Z,3.90
2019-04-01T00:46:43.651Z,3.90
2019-04-01T00:49:13.383Z,3.90
2019-04-01T00:51:43.169Z,3.80
2019-04-01T00:54:16.059Z,3.80
2019-04-01T00:56:45.827Z,3.80
2019-04-01T00:59:15.555Z,3.80
2019-04-01T01:01:45.264Z,3.70
2019-04-01T01:04:15.051Z,3.80
2019-04-01T01:06:46.671Z,3.70
2019-04-01T01:09:16.403Z,3.70
2019-04-01T01:11:46.115Z,3.70
2019-04-01T01:14:15.838Z,3.70
2019-04-01T01:16:45.597Z,3.70
2019-04-01T01:19:15.324Z,3.60
2019-04-01T01:21:46.134Z,3.60
2019-04-01T01:24:16.843Z,3.60
2019-04-01T01:26:46.686Z,3.50
2019-04-01T01:29:16.415Z,3.50
2019-04-01T01:31:46.208Z,3.50
2019-04-01T01:34:15.932Z,3.50
2019-04-01T01:36:45.645Z,3.50
2019-04-01T01:39:15.380Z,3.50
2019-04-01T01:41:45.186Z,3.50
2019-04-01T01:44:14.914Z,3.50
2019-04-01T01:46:44.746Z,3.50
2019-04-01T01:49:14.486Z,3.50
2019-04-01T01:51:44.199Z,3.50
2019-04-01T01:54:13.918Z,3.50
2019-04-01T01:56:43.612Z,3.50
2019-04-01T01:59:13.418Z,3.40
2019-04-01T02:01:43.119Z,3.40
2019-04-01T02:04:12.822Z,3.40
2019-04-01T02:06:42.607Z,3.40
2019-04-01T02:09:12.309Z,3.30
2019-04-01T02:11:42.034Z,3.30
2019-04-01T02:14:11.766Z,3.40
2019-04-01T02:16:41.540Z,3.30
2019-04-01T02:19:11.245Z,3.30
2019-04-01T02:21:40.927Z,3.30
2019-04-01T02:24:10.702Z,3.30
2019-04-01T02:26:40.655Z,3.30
2019-04-01T02:29:10.427Z,3.20
2019-04-01T02:31:40.153Z,3.20
2019-04-01T02:34:09.949Z,3.20
2019-04-01T02:36:39.666Z,3.20
2019-04-01T02:39:09.420Z,3.20
2019-04-01T02:41:39.332Z,3.20
2019-04-01T02:44:09.074Z,3.10
2019-04-01T02:46:38.817Z,3.10
2019-04-01T02:49:08.707Z,3.10
2019-04-01T02:51:38.446Z,3.10
2019-04-01T02:54:08.180Z,3.10
2019-04-01T02:56:37.896Z,3.10
2019-04-01T02:59:07.645Z,3.00
2019-04-01T03:01:37.357Z,3.00
2019-04-01T03:04:07.161Z,3.00
2019-04-01T03:06:36.894Z,2.90
2019-04-01T03:09:07.493Z,2.90
2019-04-01T03:11:37.324Z,2.90
2019-04-01T03:14:07.122Z,2.90
2019-04-01T03:16:37.384Z,2.80
2019-04-01T03:19:07.186Z,2.80
2019-04-01T03:21:36.962Z,2.80
2019-04-01T03:24:06.747Z,2.80
2019-04-01T03:26:36.583Z,2.70
2019-04-01T03:29:06.379Z,2.80
2019-04-01T03:31:36.099Z,2.70
2019-04-01T03:34:05.867Z,2.70
2019-04-01T03:36:36.603Z,2.70
2019-04-01T03:39:07.149Z,2.70
2019-04-01T03:41:36.966Z,2.70
2019-04-01T03:44:06.646Z,2.60
2019-04-01T03:46:36.390Z,2.60
2019-04-01T03:49:06.236Z,2.50
2019-04-01T03:51:36.249Z,2.50
2019-04-01T03:54:06.947Z,2.50
2019-04-01T03:56:36.689Z,2.50
2019-04-01T03:59:06.490Z,2.50
2019-04-01T04:01:40.247Z,2.50
2019-04-01T04:04:10.052Z,2.50
2019-04-01T04:06:39.762Z,2.50
2019-04-01T04:09:09.513Z,2.40
2019-04-01T04:11:39.376Z,2.40
2019-04-01T04:14:09.095Z,2.40
2019-04-01T04:16:38.883Z,2.30
2019-04-01T04:19:08.758Z,2.30
2019-04-01T04:21:38.534Z,2.30
2019-04-01T04:24:08.245Z,2.30
2019-04-01T04:26:37.952Z,2.30
2019-04-01T04:29:07.737Z,2.30
2019-04-01T04:31:37.509Z,2.30
2019-04-01T04:34:07.308Z,2.20
2019-04-01T04:36:37.137Z,2.20
2019-04-01T04:39:07.353Z,2.20
2019-04-01T04:41:37.160Z,2.20
2019-04-01T04:44:06.909Z,2.20
2019-04-01T04:46:36.627Z,2.20
2019-04-01T04:49:06.322Z,2.20
2019-04-01T04:51:36.028Z,2.20
2019-04-01T04:54:05.815Z,2.20
2019-04-01T04:56:35.737Z,2.20
2019-04-01T04:59:05.445Z,2.20
2019-04-01T05:01:37.327Z,2.20
2019-04-01T05:04:07.057Z,2.30
2019-04-01T05:06:36.777Z,2.30
2019-04-01T05:09:06.979Z,2.30
2019-04-01T05:11:36.867Z,2.30
2019-04-01T05:14:06.793Z,2.30
2019-04-01T05:16:36.655Z,2.40
2019-04-01T05:19:06.542Z,2.40
2019-04-01T05:21:36.902Z,2.40
2019-04-01T05:24:06.745Z,2.50
2019-04-01T05:26:37.319Z,2.50
2019-04-01T05:29:08.489Z,2.50
2019-04-01T05:31:41.442Z,2.60
2019-04-01T05:34:14.257Z,2.60
2019-04-01T05:36:44.129Z,2.60
2019-04-01T05:39:14.323Z,2.70
2019-04-01T05:41:44.417Z,2.70
2019-04-01T05:44:14.812Z,2.80
2019-04-01T05:46:44.846Z,2.80
2019-04-01T05:49:14.709Z,2.90
2019-04-01T05:51:44.499Z,3.00
2019-04-01T05:54:14.421Z,3.00
2019-04-01T05:56:44.225Z,3.10
2019-04-01T05:59:14.060Z,3.20
2019-04-01T06:01:46.135Z,3.20
2019-04-01T06:04:15.986Z,3.30
2019-04-01T06:06:48.709Z,3.40
2019-04-01T06:09:17.803Z,3.40
2019-04-01T06:11:47.788Z,3.50
2019-04-01T06:14:17.573Z,3.80
2019-04-01T06:16:47.467Z,4.10
2019-04-01T06:19:17.529Z,4.40
2019-04-01T06:21:47.916Z,4.70
2019-04-01T06:24:17.818Z,5.00
2019-04-01T06:26:47.611Z,5.20
2019-04-01T06:29:17.362Z,5.50
2019-04-01T06:31:47.181Z,5.80
2019-04-01T06:34:16.848Z,6.00
2019-04-01T06:36:46.608Z,6.00
2019-04-01T06:39:18.164Z,6.20
2019-04-01T06:41:48.039Z,6.20
2019-04-01T06:44:17.806Z,6.50
2019-04-01T06:46:47.677Z,6.70
2019-04-01T06:49:20.454Z,6.80
2019-04-01T06:51:50.506Z,6.70
2019-04-01T06:54:20.323Z,6.70
2019-04-01T06:56:50.183Z,6.80
2019-04-01T06:59:20.153Z,6.70
2019-04-01T07:01:49.909Z,6.90
2019-04-01T07:04:19.673Z,7.10
2019-04-01T07:06:49.553Z,7.30
2019-04-01T07:09:20.040Z,7.50
2019-04-01T07:11:49.842Z,7.60
2019-04-01T07:14:19.840Z,7.50
2019-04-01T07:16:49.596Z,7.60
2019-04-01T07:19:19.648Z,7.60
2019-04-01T07:21:49.369Z,7.60
2019-04-01T07:24:19.499Z,7.50
2019-04-01T07:26:49.375Z,7.30
2019-04-01T07:29:19.136Z,7.30
2019-04-01T07:31:48.862Z,7.40
2019-04-01T07:34:18.600Z,7.50
2019-04-01T07:36:48.447Z,7.70
2019-04-01T07:39:18.232Z,7.70
2019-04-01T07:41:47.954Z,7.50
2019-04-01T07:44:17.839Z,7.40
2019-04-01T07:46:50.016Z,7.30
2019-04-01T07:49:19.860Z,7.30
2019-04-01T07:51:49.630Z,7.10
2019-04-01T07:54:19.616Z,7.00
2019-04-01T07:56:49.405Z,6.90
2019-04-01T07:59:19.518Z,6.90
2019-04-01T08:01:52.723Z,6.80
2019-04-01T08:04:22.509Z,7.00
2019-04-01T08:06:52.377Z,7.10
2019-04-01T08:09:22.139Z,7.00
2019-04-01T08:11:51.913Z,7.00
2019-04-01T08:14:21.616Z,7.10
2019-04-01T08:16:51.510Z,7.10
2019-04-01T08:19:21.280Z,7.10
2019-04-01T08:21:52.498Z,7.00
2019-04-01T08:24:22.471Z,7.10
2019-04-01T08:26:52.340Z,7.30
2019-04-01T08:29:30.077Z,7.40
2019-04-01T08:31:53.604Z,7.50
2019-04-01T08:34:23.349Z,7.40
2019-04-01T08:36:53.074Z,7.30
2019-04-01T08:39:22.772Z,7.40
2019-04-01T08:41:53.902Z,7.60
2019-04-01T08:44:23.675Z,7.70
2019-04-01T08:46:54.474Z,7.70
2019-04-01T08:49:24.513Z,7.90
2019-04-01T08:51:54.484Z,7.60
2019-04-01T08:54:24.406Z,7.30
2019-04-01T08:56:54.224Z,7.40
2019-04-01T08:59:24.195Z,7.60
2019-04-01T09:01:53.950Z,7.90
2019-04-01T09:04:23.701Z,8.00
2019-04-01T09:06:53.538Z,7.90
2019-04-01T09:09:24.912Z,7.90
2019-04-01T09:11:55.618Z,8.10
2019-04-01T09:14:25.751Z,8.30
2019-04-01T09:16:57.078Z,8.40
2019-04-01T09:19:26.812Z,8.40
2019-04-01T09:21:56.515Z,8.40
2019-04-01T09:24:26.318Z,8.20
2019-04-01T09:26:57.076Z,8.10
2019-04-01T09:29:26.835Z,8.30
2019-04-01T09:31:56.615Z,8.40
2019-04-01T09:34:26.397Z,8.50
2019-04-01T09:36:56.165Z,8.60
2019-04-01T09:39:25.879Z,8.70
2019-04-01T09:41:55.584Z,8.70
2019-04-01T09:44:36.159Z,8.70
2019-04-01T09:46:56.918Z,8.70
2019-04-01T09:49:27.805Z,8.70
2019-04-01T09:51:57.560Z,8.40
2019-04-01T09:54:27.349Z,8.30
2019-04-01T09:56:57.426Z,8.40
2019-04-01T09:59:34.400Z,8.60
2019-04-01T10:02:04.150Z,8.70
2019-04-01T10:04:33.990Z,8.80
2019-04-01T10:07:03.790Z,8.80
2019-04-01T10:09:33.565Z,8.70
2019-04-01T10:12:03.440Z,8.60
2019-04-01T10:14:33.280Z,8.70
2019-04-01T10:17:03.130Z,8.80
2019-04-01T10:19:33.108Z,8.80
2019-04-01T10:22:02.934Z,8.80
2019-04-01T10:24:32.700Z,8.80
2019-04-01T10:27:02.687Z,8.80
2019-04-01T10:29:32.450Z,8.90
2019-04-01T10:32:03.320Z,9.10
2019-04-01T10:34:34.275Z,9.10
2019-04-01T10:37:10.537Z,8.90
2019-04-01T10:39:40.395Z,8.80
2019-04-01T10:42:10.518Z,8.90
2019-04-01T10:44:40.367Z,8.90
2019-04-01T10:47:10.190Z,9.00
2019-04-01T10:49:40.136Z,9.00
2019-04-01T10:52:09.928Z,9.10
2019-04-01T10:54:39.852Z,9.30
2019-04-01T10:57:09.750Z,9.40
2019-04-01T10:59:39.615Z,9.50
2019-04-01T11:02:09.464Z,9.60
2019-04-01T11:04:39.319Z,9.50
2019-04-01T11:07:09.126Z,9.50
2019-04-01T11:09:38.967Z,9.40
2019-04-01T11:12:08.724Z,9.40
2019-04-01T11:14:38.476Z,9.40
2019-04-01T11:17:08.351Z,9.50
2019-04-01T11:19:39.420Z,9.50
2019-04-01T11:22:09.569Z,9.40
2019-04-01T11:24:39.354Z,9.30
2019-04-01T11:27:09.176Z,9.40
2019-04-01T11:29:42.079Z,9.50
2019-04-01T11:32:13.511Z,9.70
2019-04-01T11:34:44.360Z,9.70
2019-04-01T11:37:14.123Z,9.70
2019-04-01T11:39:43.951Z,9.80
2019-04-01T11:42:13.834Z,9.90
2019-04-01T11:44:43.775Z,10.00
2019-04-01T11:47:13.584Z,9.80
2019-04-01T11:49:43.299Z,9.70
2019-04-01T11:52:15.522Z,9.60
2019-04-01T11:54:47.670Z,9.70
2019-04-01T11:57:17.489Z,9.70
2019-04-01T11:59:47.179Z,9.80
2019-04-01T12:02:16.886Z,9.70
2019-04-01T12:04:46.715Z,9.80
2019-04-01T12:07:16.571Z,9.80
2019-04-01T12:09:46.443Z,10.00
2019-04-01T12:12:23.717Z,9.90
2019-04-01T12:14:47.660Z,10.00
2019-04-01T12:17:17.346Z,10.00
2019-04-01T12:19:48.365Z,10.00
2019-04-01T12:22:19.823Z,10.00
2019-04-01T12:24:49.677Z,10.00
2019-04-01T12:27:19.462Z,10.00
2019-04-01T12:29:49.298Z,10.00
2019-04-01T12:32:19.775Z,10.00
2019-04-01T12:34:50.540Z,10.00
2019-04-01T12:37:20.359Z,9.90
2019-04-01T12:39:51.132Z,10.00
2019-04-01T12:42:21.920Z,9.90
2019-04-01T12:44:51.696Z,10.00
2019-04-01T12:47:21.694Z,10.00
2019-04-01T12:49:51.428Z,9.90
2019-04-01T12:52:21.318Z,10.00
2019-04-01T12:54:51.107Z,10.20
2019-04-01T12:57:21.048Z,10.30
2019-04-01T12:59:51.134Z,10.40
2019-04-01T13:02:20.835Z,10.60
2019-04-01T13:04:51.507Z,10.50
2019-04-01T13:07:21.446Z,10.40
2019-04-01T13:09:51.633Z,10.40
2019-04-01T13:12:22.071Z,10.50
2019-04-01T13:14:55.316Z,10.60
2019-04-01T13:17:23.310Z,10.70
2019-04-01T13:19:53.003Z,10.80
2019-04-01T13:22:23.753Z,10.70
2019-04-01T13:24:53.601Z,10.50
2019-04-01T13:27:23.358Z,10.70
2019-04-01T13:29:53.140Z,10.60
2019-04-01T13:32:22.849Z,10.60
2019-04-01T13:34:52.778Z,10.60
2019-04-01T13:37:22.508Z,10.70
2019-04-01T13:39:52.417Z,10.80
2019-04-01T13:42:24.885Z,10.90
2019-04-01T13:44:53.620Z,10.90
2019-04-01T13:47:23.377Z,10.80
2019-04-01T13:49:53.071Z,10.80
2019-04-01T13:52:22.853Z,10.80
2019-04-01T13:54:54.177Z,10.90
2019-04-01T13:57:23.917Z,10.90
2019-04-01T13:59:53.621Z,11.00
2019-04-01T14:02:23.333Z,11.00
2019-04-01T14:07:33.709Z,11.00
2019-04-01T14:10:03.457Z,11.00
2019-04-01T14:12:33.212Z,11.00
2019-04-01T14:15:02.910Z,11.10
2019-04-01T14:17:32.693Z,11.10
2019-04-01T14:20:02.399Z,11.10
2019-04-01T14:22:32.175Z,11.00
2019-04-01T14:25:01.907Z,11.00
2019-04-01T14:27:31.659Z,11.00
2019-04-01T14:30:01.460Z,11.00
2019-04-01T14:32:31.151Z,10.90
2019-04-01T14:35:00.937Z,10.90
2019-04-01T14:37:30.672Z,10.90
2019-04-01T14:40:00.464Z,11.00
2019-04-01T14:42:30.177Z,11.00
2019-04-01T14:45:01.148Z,11.00
2019-04-01T14:47:32.473Z,11.10
2019-04-01T14:50:03.474Z,11.00
2019-04-01T14:52:34.109Z,10.90
2019-04-01T14:55:04.317Z,11.00
2019-04-01T14:57:35.125Z,10.90
2019-04-01T15:00:06.537Z,11.00
2019-04-01T15:02:36.482Z,11.10
2019-04-01T15:05:06.724Z,11.10
2019-04-01T15:07:37.373Z,11.00
2019-04-01T15:10:10.115Z,11.00
2019-04-01T15:12:40.020Z,10.90
2019-04-01T15:15:10.341Z,10.90
2019-04-01T15:17:40.056Z,10.90
2019-04-01T15:20:11.067Z,11.00
2019-04-01T15:22:40.757Z,11.00
2019-04-01T15:25:11.019Z,11.00
2019-04-01T15:27:40.710Z,11.00
2019-04-01T15:30:14.069Z,10.90
2019-04-01T15:32:42.250Z,10.80
2019-04-01T15:35:12.110Z,10.80
2019-04-01T15:37:41.928Z,10.80
2019-04-01T15:40:12.264Z,10.80
2019-04-01T15:42:43.050Z,10.70
2019-04-01T15:45:13.440Z,10.70
2019-04-01T15:47:43.221Z,10.60
2019-04-01T15:50:27.312Z,10.70
2019-04-01T15:52:44.706Z,10.70
2019-04-01T15:55:15.643Z,10.60
2019-04-01T15:57:46.548Z,10.60
2019-04-01T16:00:19.524Z,10.60
2019-04-01T16:02:48.640Z,10.70
2019-04-01T16:05:18.480Z,10.70
2019-04-01T16:07:48.345Z,10.70
2019-04-01T16:10:18.398Z,10.70
2019-04-01T16:12:48.222Z,10.70
2019-04-01T16:15:18.324Z,10.60
2019-04-01T16:17:49.114Z,10.60
2019-04-01T16:20:19.050Z,10.60
2019-04-01T16:22:49.300Z,10.60
2019-04-01T16:25:20.173Z,10.50
2019-04-01T16:27:49.972Z,10.50
2019-04-01T16:30:19.796Z,10.50
2019-04-01T16:32:49.619Z,10.50
2019-04-01T16:35:19.509Z,10.40
2019-04-01T16:37:49.430Z,10.40
2019-04-01T16:40:22.068Z,10.40
2019-04-01T16:42:55.480Z,10.30
2019-04-01T16:45:23.694Z,10.30
2019-04-01T16:47:53.568Z,10.30
2019-04-01T16:50:23.473Z,10.30
2019-04-01T16:53:02.757Z,10.20
2019-04-01T16:55:32.625Z,10.20
2019-04-01T16:58:03.164Z,10.20
2019-04-01T17:00:33.181Z,10.20
2019-04-01T17:03:03.958Z,10.20
2019-04-01T17:05:34.424Z,10.20
2019-04-01T17:08:04.433Z,10.10
2019-04-01T17:10:34.269Z,10.00
2019-04-01T17:13:04.179Z,10.00
2019-04-01T17:15:34.016Z,9.90
2019-04-01T17:18:03.736Z,9.80
2019-04-01T17:20:33.550Z,9.80
2019-04-01T17:23:03.596Z,9.70
2019-04-01T17:25:33.363Z,9.70
2019-04-01T17:28:03.130Z,9.60
2019-04-01T17:30:34.091Z,9.60
2019-04-01T17:33:04.292Z,10.60
2019-04-01T17:35:34.242Z,9.50
2019-04-01T17:38:04.395Z,9.40
2019-04-01T17:40:34.467Z,9.40
2019-04-01T17:43:04.909Z,9.30
2019-04-01T17:45:40.239Z,9.30
2019-04-01T17:48:10.739Z,9.20
2019-04-01T17:50:40.513Z,9.20
2019-04-01T17:53:11.290Z,9.20
2019-04-01T17:55:41.141Z,9.10
2019-04-01T17:58:11.024Z,9.00
2019-04-01T18:00:46.187Z,9.00
2019-04-01T18:03:16.141Z,8.90
2019-04-01T18:05:45.977Z,8.80
2019-04-01T18:08:15.972Z,8.70
2019-04-01T18:10:48.646Z,8.70
2019-04-01T18:13:17.399Z,8.60
2019-04-01T18:15:47.138Z,8.60
2019-04-01T18:18:26.573Z,8.50
2019-04-01T18:20:48.610Z,8.40
2019-04-01T18:23:21.871Z,8.40
2019-04-01T18:25:50.641Z,8.40
2019-04-01T18:28:20.467Z,8.40
2019-04-01T18:30:52.611Z,8.40
2019-04-01T18:33:22.433Z,8.40
2019-04-01T18:35:52.401Z,8.40
2019-04-01T18:38:23.994Z,8.30
2019-04-01T18:40:53.739Z,8.20
2019-04-01T18:43:23.659Z,8.20
2019-04-01T18:45:53.453Z,8.10
2019-04-01T18:48:23.289Z,8.10
2019-04-01T18:50:53.095Z,8.00
2019-04-01T18:53:22.843Z,8.00
2019-04-01T18:55:55.953Z,8.00
2019-04-01T18:58:26.195Z,8.00
2019-04-01T19:00:56.078Z,7.90
2019-04-01T19:03:25.955Z,7.90
2019-04-01T19:05:55.814Z,7.80
2019-04-01T19:08:25.981Z,7.80
2019-04-01T19:11:02.240Z,7.80
2019-04-01T19:13:27.714Z,7.70
2019-04-01T19:15:58.139Z,7.60
2019-04-01T19:18:28.922Z,7.70
2019-04-01T19:21:04.381Z,7.60
2019-04-01T19:23:31.114Z,7.60
2019-04-01T19:26:01.255Z,7.50
2019-04-01T19:28:31.153Z,7.50
2019-04-01T19:31:00.956Z,7.50
2019-04-01T19:33:31.973Z,7.40
2019-04-01T19:36:01.784Z,7.40
2019-04-01T19:38:31.607Z,7.40
2019-04-01T19:41:01.343Z,7.40
2019-04-01T19:43:31.213Z,7.30
2019-04-01T19:46:01.333Z,7.30
2019-04-01T19:48:32.286Z,7.20
2019-04-01T19:51:02.487Z,7.20
2019-04-01T19:53:32.170Z,7.20
2019-04-01T19:56:03.002Z,7.20
2019-04-01T19:58:32.891Z,7.10
2019-04-01T20:01:02.779Z,7.20
2019-04-01T20:03:34.430Z,7.10
2019-04-01T20:06:07.301Z,7.10
2019-04-01T20:08:36.241Z,7.00
2019-04-01T20:11:07.011Z,7.10
2019-04-01T20:13:36.748Z,7.00
2019-04-01T20:16:06.596Z,7.00
2019-04-01T20:18:36.489Z,7.00
2019-04-01T20:21:06.349Z,6.90
2019-04-01T20:23:36.097Z,6.90
2019-04-01T20:26:06.259Z,6.90
2019-04-01T20:28:37.121Z,6.90
2019-04-01T20:31:07.048Z,6.80
2019-04-01T20:33:37.182Z,6.80
2019-04-01T20:36:07.111Z,6.80
2019-04-01T20:38:36.877Z,6.70
2019-04-01T20:41:06.726Z,6.80
2019-04-01T20:43:36.464Z,6.70
2019-04-01T20:46:06.500Z,6.70
2019-04-01T20:48:36.388Z,6.70
2019-04-01T20:51:06.158Z,6.60
2019-04-01T20:53:35.985Z,6.60
2019-04-01T20:56:06.422Z,6.60
2019-04-01T20:58:36.228Z,6.60
2019-04-01T21:01:07.029Z,6.50
2019-04-01T21:03:36.991Z,6.50
2019-04-01T21:06:08.096Z,6.40
2019-04-01T21:08:38.122Z,6.40
2019-04-01T21:11:08.954Z,6.40
2019-04-01T21:13:38.958Z,6.40
2019-04-01T21:16:08.666Z,6.40
2019-04-01T21:18:41.230Z,6.40
2019-04-01T21:21:12.183Z,6.40
2019-04-01T21:23:41.942Z,6.30
2019-04-01T21:26:11.719Z,6.30
2019-04-01T21:28:41.484Z,6.30
2019-04-01T21:31:11.159Z,6.20
2019-04-01T21:33:42.109Z,6.20
2019-04-01T21:36:12.076Z,6.10
2019-04-01T21:38:41.890Z,6.10
2019-04-01T21:41:11.530Z,6.10
2019-04-01T21:43:41.238Z,6.00
2019-04-01T21:46:11.040Z,5.90
2019-04-01T21:48:40.801Z,5.90
2019-04-01T21:51:10.613Z,5.90
2019-04-01T21:53:40.298Z,5.80
2019-04-01T21:56:10.041Z,5.90
2019-04-01T21:58:39.776Z,5.80
2019-04-01T22:01:09.701Z,5.80
2019-04-01T22:03:39.616Z,5.80
2019-04-01T22:06:09.461Z,5.80
2019-04-01T22:08:39.120Z,5.70
2019-04-01T22:11:08.810Z,5.70
2019-04-01T22:13:38.530Z,5.60
2019-04-01T22:16:08.255Z,5.60
2019-04-01T22:18:37.964Z,5.60
2019-04-01T22:21:07.772Z,5.60
2019-04-01T22:23:38.712Z,5.60
2019-04-01T22:26:08.452Z,5.60
2019-04-01T22:28:38.198Z,5.60
2019-04-01T22:31:07.920Z,5.60
2019-04-01T22:33:37.634Z,5.50
2019-04-01T22:36:07.300Z,5.50
2019-04-01T22:38:37.031Z,5.50
2019-04-01T22:41:06.682Z,5.50
2019-04-01T22:43:36.392Z,5.40
2019-04-01T22:46:06.378Z,5.40
2019-04-01T22:48:36.065Z,5.40
2019-04-01T22:51:05.842Z,5.40
2019-04-01T22:53:35.662Z,5.40
2019-04-01T22:56:05.499Z,5.30
2019-04-01T22:58:35.269Z,5.30
2019-04-01T23:01:05.030Z,5.30
2019-04-01T23:03:36.888Z,5.30
2019-04-01T23:06:09.442Z,5.20
2019-04-01T23:08:39.248Z,5.20
2019-04-01T23:11:08.938Z,5.20
2019-04-01T23:13:38.608Z,5.20
2019-04-01T23:16:08.308Z,5.20
2019-04-01T23:18:37.967Z,5.10
2019-04-01T23:21:07.726Z,5.10
2019-04-01T23:23:37.388Z,5.10
2019-04-01T23:26:07.103Z,5.10
2019-04-01T23:28:36.865Z,5.10
2019-04-01T23:31:06.622Z,5.00
2019-04-01T23:33:36.311Z,5.10
2019-04-01T23:36:06.606Z,5.00
2019-04-01T23:38:36.654Z,5.00
2019-04-01T23:41:06.455Z,5.00
2019-04-01T23:43:36.646Z,4.90
2019-04-01T23:46:08.488Z,4.90
2019-04-01T23:48:37.942Z,4.90
2019-04-01T23:51:10.011Z,4.90
2019-04-01T23:53:39.718Z,4.90
2019-04-01T23:56:09.442Z,4.90
2019-04-01T23:58:39.152Z,4.90
